sensor_id;sensor_type;location;lat;lon;timestamp;temperature;humidity
22795;DHT22;11564;50.920;11.612;2023-06-24T00:01:28;13.30;99.90
22795;DHT22;11564;50.920;11.612;2023-06-24T00:03:53;13.30;99.90
22795;DHT22;11564;50.920;11.612;2023-06-24T00:06:20;13.30;99.90
22795;DHT22;11564;50.920;11.612;2023-06-24T00:08:48;13.30;99.90
22795;DHT22;11564;50.920;11.612;2023-06-24T00:11:14;13.30;99.90
22795;DHT22;11564;50.920;11.612;2023-06-24T00:13:40;13.30;99.90
22795;DHT22;11564;50.920;11.612;2023-06-24T00:16:06;13.30;99.90
22795;DHT22;11564;50.920;11.612;2023-06-24T00:18:32;13.40;99.90
22795;DHT22;11564;50.920;11.612;2023-06-24T00:20:58;13.40;99.90
22795;DHT22;11564;50.920;11.612;2023-06-24T00:23:24;13.30;99.90
22795;DHT22;11564;50.920;11.612;2023-06-24T00:25:51;13.30;99.90
22795;DHT22;11564;50.920;11.612;2023-06-24T00:28:16;13.20;99.90
22795;DHT22;11564;50.920;11.612;2023-06-24T00:30:42;13.20;99.90
22795;DHT22;11564;50.920;11.612;2023-06-24T00:33:08;13.20;99.90
22795;DHT22;11564;50.920;11.612;2023-06-24T00:35:37;13.10;99.90
22795;DHT22;11564;50.920;11.612;2023-06-24T00:38:03;13.10;99.90
22795;DHT22;11564;50.920;11.612;2023-06-24T00:40:29;13.10;99.90
22795;DHT22;11564;50.920;11.612;2023-06-24T00:42:54;13.10;99.90
22795;DHT22;11564;50.920;11.612;2023-06-24T00:45:21;13.00;99.90
22795;DHT22;11564;50.920;11.612;2023-06-24T00:47:47;13.00;99.90
22795;DHT22;11564;50.920;11.612;2023-06-24T00:50:14;13.00;99.90
22795;DHT22;11564;50.920;11.612;2023-06-24T00:52:40;13.00;99.90
22795;DHT22;11564;50.920;11.612;2023-06-24T00:55:10;12.90;99.90
22795;DHT22;11564;50.920;11.612;2023-06-24T00:57:37;13.00;99.90
22795;DHT22;11564;50.920;11.612;2023-06-24T01:00:03;13.00;99.90
22795;DHT22;11564;50.920;11.612;2023-06-24T01:02:34;13.00;99.90
22795;DHT22;11564;50.920;11.612;2023-06-24T01:05:06;13.00;99.90
22795;DHT22;11564;50.920;11.612;2023-06-24T01:07:32;13.00;99.90
22795;DHT22;11564;50.920;11.612;2023-06-24T01:09:58;12.90;99.90
22795;DHT22;11564;50.920;11.612;2023-06-24T01:12:25;12.80;99.90
22795;DHT22;11564;50.920;11.612;2023-06-24T01:14:51;12.80;99.90
22795;DHT22;11564;50.920;11.612;2023-06-24T01:17:24;12.70;99.90
22795;DHT22;11564;50.920;11.612;2023-06-24T01:20:08;12.70;99.90
22795;DHT22;11564;50.920;11.612;2023-06-24T01:28:23;12.70;99.90
22795;DHT22;11564;50.920;11.612;2023-06-24T01:33:49;12.60;99.90
22795;DHT22;11564;50.920;11.612;2023-06-24T01:36:17;12.60;99.90
22795;DHT22;11564;50.920;11.612;2023-06-24T01:38:48;12.60;99.90
22795;DHT22;11564;50.920;11.612;2023-06-24T01:41:22;12.60;99.90
22795;DHT22;11564;50.920;11.612;2023-06-24T01:43:52;12.60;99.90
22795;DHT22;11564;50.920;11.612;2023-06-24T01:46:22;12.50;99.90
22795;DHT22;11564;50.920;11.612;2023-06-24T01:48:48;12.40;99.90
22795;DHT22;11564;50.920;11.612;2023-06-24T01:51:18;12.40;99.90
22795;DHT22;11564;50.920;11.612;2023-06-24T01:53:50;12.30;99.90
22795;DHT22;11564;50.920;11.612;2023-06-24T01:56:17;12.20;99.90
22795;DHT22;11564;50.920;11.612;2023-06-24T01:58:44;12.20;99.90
22795;DHT22;11564;50.920;11.612;2023-06-24T02:01:12;12.10;99.90
22795;DHT22;11564;50.920;11.612;2023-06-24T02:03:39;12.10;99.90
22795;DHT22;11564;50.920;11.612;2023-06-24T02:06:06;12.10;99.90
22795;DHT22;11564;50.920;11.612;2023-06-24T02:08:36;12.10;99.90
22795;DHT22;11564;50.920;11.612;2023-06-24T02:11:04;12.20;99.90
22795;DHT22;11564;50.920;11.612;2023-06-24T02:13:31;12.20;99.90
22795;DHT22;11564;50.920;11.612;2023-06-24T02:15:59;12.20;99.90
22795;DHT22;11564;50.920;11.612;2023-06-24T02:18:27;12.20;99.90
22795;DHT22;11564;50.920;11.612;2023-06-24T02:20:53;12.10;99.90
22795;DHT22;11564;50.920;11.612;2023-06-24T02:23:21;12.00;99.90
22795;DHT22;11564;50.920;11.612;2023-06-24T02:25:49;12.00;99.90
22795;DHT22;11564;50.920;11.612;2023-06-24T02:28:16;11.90;99.90
22795;DHT22;11564;50.920;11.612;2023-06-24T02:30:43;11.80;99.90
22795;DHT22;11564;50.920;11.612;2023-06-24T02:33:10;11.80;99.90
22795;DHT22;11564;50.920;11.612;2023-06-24T02:35:37;11.70;99.90
22795;DHT22;11564;50.920;11.612;2023-06-24T02:38:03;11.60;99.90
22795;DHT22;11564;50.920;11.612;2023-06-24T02:40:29;11.70;99.90
22795;DHT22;11564;50.920;11.612;2023-06-24T02:42:56;11.60;99.90
22795;DHT22;11564;50.920;11.612;2023-06-24T02:45:22;11.50;99.90
22795;DHT22;11564;50.920;11.612;2023-06-24T02:47:49;11.50;99.90
22795;DHT22;11564;50.920;11.612;2023-06-24T02:50:15;11.40;99.90
22795;DHT22;11564;50.920;11.612;2023-06-24T02:52:42;11.40;99.90
22795;DHT22;11564;50.920;11.612;2023-06-24T02:55:08;11.30;99.90
22795;DHT22;11564;50.920;11.612;2023-06-24T02:57:35;11.30;99.90
22795;DHT22;11564;50.920;11.612;2023-06-24T03:00:03;11.30;99.90
22795;DHT22;11564;50.920;11.612;2023-06-24T03:02:31;11.30;99.90
22795;DHT22;11564;50.920;11.612;2023-06-24T03:04:58;11.30;99.90
22795;DHT22;11564;50.920;11.612;2023-06-24T03:07:27;11.20;99.90
22795;DHT22;11564;50.920;11.612;2023-06-24T03:09:53;11.20;99.90
22795;DHT22;11564;50.920;11.612;2023-06-24T03:12:19;11.20;99.90
22795;DHT22;11564;50.920;11.612;2023-06-24T03:14:44;11.20;99.90
22795;DHT22;11564;50.920;11.612;2023-06-24T03:17:10;11.20;99.90
22795;DHT22;11564;50.920;11.612;2023-06-24T03:19:36;11.20;99.90
22795;DHT22;11564;50.920;11.612;2023-06-24T03:22:03;11.10;99.90
22795;DHT22;11564;50.920;11.612;2023-06-24T03:24:29;11.10;99.90
22795;DHT22;11564;50.920;11.612;2023-06-24T03:26:55;11.10;99.90
22795;DHT22;11564;50.920;11.612;2023-06-24T03:29:23;11.20;99.90
22795;DHT22;11564;50.920;11.612;2023-06-24T03:31:48;11.20;99.90
22795;DHT22;11564;50.920;11.612;2023-06-24T03:34:15;11.20;99.90
22795;DHT22;11564;50.920;11.612;2023-06-24T03:36:42;11.20;99.90
22795;DHT22;11564;50.920;11.612;2023-06-24T03:39:08;11.10;99.90
22795;DHT22;11564;50.920;11.612;2023-06-24T03:41:33;11.20;99.90
22795;DHT22;11564;50.920;11.612;2023-06-24T03:43:59;11.20;99.90
22795;DHT22;11564;50.920;11.612;2023-06-24T03:46:25;11.20;99.90
22795;DHT22;11564;50.920;11.612;2023-06-24T03:48:51;11.30;99.90
22795;DHT22;11564;50.920;11.612;2023-06-24T03:51:17;11.30;99.90
22795;DHT22;11564;50.920;11.612;2023-06-24T03:53:42;11.30;99.90
22795;DHT22;11564;50.920;11.612;2023-06-24T03:56:08;11.30;99.90
22795;DHT22;11564;50.920;11.612;2023-06-24T03:58:34;11.30;99.90
22795;DHT22;11564;50.920;11.612;2023-06-24T04:01:02;11.30;99.90
22795;DHT22;11564;50.920;11.612;2023-06-24T04:03:27;11.30;99.90
22795;DHT22;11564;50.920;11.612;2023-06-24T04:05:55;11.40;99.90
22795;DHT22;11564;50.920;11.612;2023-06-24T04:08:21;11.40;99.90
22795;DHT22;11564;50.920;11.612;2023-06-24T04:10:47;11.40;99.90
22795;DHT22;11564;50.920;11.612;2023-06-24T04:13:12;11.50;99.90
22795;DHT22;11564;50.920;11.612;2023-06-24T04:15:38;11.50;99.90
22795;DHT22;11564;50.920;11.612;2023-06-24T04:18:03;11.50;99.90
22795;DHT22;11564;50.920;11.612;2023-06-24T04:20:29;11.60;99.90
22795;DHT22;11564;50.920;11.612;2023-06-24T04:22:54;11.60;99.90
22795;DHT22;11564;50.920;11.612;2023-06-24T04:25:20;11.60;99.90
22795;DHT22;11564;50.920;11.612;2023-06-24T04:27:46;11.60;99.90
22795;DHT22;11564;50.920;11.612;2023-06-24T04:30:11;11.60;99.90
22795;DHT22;11564;50.920;11.612;2023-06-24T04:32:37;11.70;99.90
22795;DHT22;11564;50.920;11.612;2023-06-24T04:35:03;11.80;99.90
22795;DHT22;11564;50.920;11.612;2023-06-24T04:37:29;11.80;99.90
22795;DHT22;11564;50.920;11.612;2023-06-24T04:39:55;11.90;99.90
22795;DHT22;11564;50.920;11.612;2023-06-24T04:42:21;12.00;99.90
22795;DHT22;11564;50.920;11.612;2023-06-24T04:44:48;12.00;99.90
22795;DHT22;11564;50.920;11.612;2023-06-24T04:47:16;12.10;99.90
22795;DHT22;11564;50.920;11.612;2023-06-24T04:49:43;12.10;99.90
22795;DHT22;11564;50.920;11.612;2023-06-24T04:52:08;12.20;99.90
22795;DHT22;11564;50.920;11.612;2023-06-24T04:54:34;12.30;99.90
22795;DHT22;11564;50.920;11.612;2023-06-24T04:57:00;12.30;99.90
22795;DHT22;11564;50.920;11.612;2023-06-24T04:59:25;12.40;99.90
22795;DHT22;11564;50.920;11.612;2023-06-24T05:01:51;12.50;99.90
22795;DHT22;11564;50.920;11.612;2023-06-24T05:04:17;12.50;99.90
22795;DHT22;11564;50.920;11.612;2023-06-24T05:06:42;12.60;99.90
22795;DHT22;11564;50.920;11.612;2023-06-24T05:09:08;12.60;99.90
22795;DHT22;11564;50.920;11.612;2023-06-24T05:11:38;12.70;99.90
22795;DHT22;11564;50.920;11.612;2023-06-24T05:14:04;12.70;99.90
22795;DHT22;11564;50.920;11.612;2023-06-24T05:16:29;12.80;99.90
22795;DHT22;11564;50.920;11.612;2023-06-24T05:18:55;12.90;99.90
22795;DHT22;11564;50.920;11.612;2023-06-24T05:21:21;13.00;99.90
22795;DHT22;11564;50.920;11.612;2023-06-24T05:23:46;13.10;99.90
22795;DHT22;11564;50.920;11.612;2023-06-24T05:26:12;13.20;99.90
22795;DHT22;11564;50.920;11.612;2023-06-24T05:28:37;13.30;99.90
22795;DHT22;11564;50.920;11.612;2023-06-24T05:31:03;13.40;99.90
22795;DHT22;11564;50.920;11.612;2023-06-24T05:33:28;13.50;99.90
22795;DHT22;11564;50.920;11.612;2023-06-24T05:35:54;13.50;99.90
22795;DHT22;11564;50.920;11.612;2023-06-24T05:38:19;13.50;99.90
22795;DHT22;11564;50.920;11.612;2023-06-24T05:40:45;13.60;99.90
22795;DHT22;11564;50.920;11.612;2023-06-24T05:43:11;13.60;99.90
22795;DHT22;11564;50.920;11.612;2023-06-24T05:45:36;13.70;99.90
22795;DHT22;11564;50.920;11.612;2023-06-24T05:48:03;13.70;99.90
22795;DHT22;11564;50.920;11.612;2023-06-24T05:50:28;13.80;99.90
22795;DHT22;11564;50.920;11.612;2023-06-24T05:52:54;13.80;99.90
22795;DHT22;11564;50.920;11.612;2023-06-24T05:55:20;13.90;99.90
22795;DHT22;11564;50.920;11.612;2023-06-24T05:57:45;14.00;99.90
22795;DHT22;11564;50.920;11.612;2023-06-24T06:00:11;14.00;99.90
22795;DHT22;11564;50.920;11.612;2023-06-24T06:02:37;14.10;99.90
22795;DHT22;11564;50.920;11.612;2023-06-24T06:05:03;14.10;99.90
22795;DHT22;11564;50.920;11.612;2023-06-24T06:07:28;14.20;99.90
22795;DHT22;11564;50.920;11.612;2023-06-24T06:09:54;14.20;99.90
22795;DHT22;11564;50.920;11.612;2023-06-24T06:12:21;14.20;99.90
22795;DHT22;11564;50.920;11.612;2023-06-24T06:14:46;14.30;99.90
22795;DHT22;11564;50.920;11.612;2023-06-24T06:17:13;14.30;99.90
22795;DHT22;11564;50.920;11.612;2023-06-24T06:19:39;14.40;99.90
22795;DHT22;11564;50.920;11.612;2023-06-24T06:22:07;14.40;99.90
22795;DHT22;11564;50.920;11.612;2023-06-24T06:24:33;14.50;99.90
22795;DHT22;11564;50.920;11.612;2023-06-24T06:26:58;14.50;99.90
22795;DHT22;11564;50.920;11.612;2023-06-24T06:29:24;14.50;99.90
22795;DHT22;11564;50.920;11.612;2023-06-24T06:31:50;14.60;99.90
22795;DHT22;11564;50.920;11.612;2023-06-24T06:34:15;14.70;99.90
22795;DHT22;11564;50.920;11.612;2023-06-24T06:36:41;14.90;99.90
22795;DHT22;11564;50.920;11.612;2023-06-24T06:39:07;14.90;99.90
22795;DHT22;11564;50.920;11.612;2023-06-24T06:41:32;15.00;99.90
22795;DHT22;11564;50.920;11.612;2023-06-24T06:43:58;15.20;99.90
22795;DHT22;11564;50.920;11.612;2023-06-24T06:46:23;15.30;99.90
22795;DHT22;11564;50.920;11.612;2023-06-24T06:48:49;15.40;99.90
22795;DHT22;11564;50.920;11.612;2023-06-24T06:51:16;15.50;99.90
22795;DHT22;11564;50.920;11.612;2023-06-24T06:53:44;15.60;99.90
22795;DHT22;11564;50.920;11.612;2023-06-24T06:56:17;15.70;99.90
22795;DHT22;11564;50.920;11.612;2023-06-24T06:58:42;15.70;99.90
22795;DHT22;11564;50.920;11.612;2023-06-24T07:01:08;15.30;99.90
22795;DHT22;11564;50.920;11.612;2023-06-24T07:03:33;15.50;99.90
22795;DHT22;11564;50.920;11.612;2023-06-24T07:05:59;15.60;99.90
22795;DHT22;11564;50.920;11.612;2023-06-24T07:08:24;15.60;99.90
22795;DHT22;11564;50.920;11.612;2023-06-24T07:10:50;15.40;99.90
22795;DHT22;11564;50.920;11.612;2023-06-24T07:13:16;15.30;99.90
22795;DHT22;11564;50.920;11.612;2023-06-24T07:15:41;15.30;99.90
22795;DHT22;11564;50.920;11.612;2023-06-24T07:18:07;15.50;99.90
22795;DHT22;11564;50.920;11.612;2023-06-24T07:20:33;15.60;99.90
22795;DHT22;11564;50.920;11.612;2023-06-24T07:22:58;15.70;99.90
22795;DHT22;11564;50.920;11.612;2023-06-24T07:25:24;15.70;99.90
22795;DHT22;11564;50.920;11.612;2023-06-24T07:27:51;16.00;99.90
22795;DHT22;11564;50.920;11.612;2023-06-24T07:30:16;16.10;99.90
22795;DHT22;11564;50.920;11.612;2023-06-24T07:32:42;15.70;99.90
22795;DHT22;11564;50.920;11.612;2023-06-24T07:35:08;15.90;99.90
22795;DHT22;11564;50.920;11.612;2023-06-24T07:37:34;15.90;99.90
22795;DHT22;11564;50.920;11.612;2023-06-24T07:40:00;15.90;99.90
22795;DHT22;11564;50.920;11.612;2023-06-24T07:42:25;16.10;99.90
22795;DHT22;11564;50.920;11.612;2023-06-24T07:44:51;16.10;99.90
22795;DHT22;11564;50.920;11.612;2023-06-24T07:47:17;16.20;99.90
22795;DHT22;11564;50.920;11.612;2023-06-24T07:49:44;16.30;99.90
22795;DHT22;11564;50.920;11.612;2023-06-24T07:52:09;16.20;99.90
22795;DHT22;11564;50.920;11.612;2023-06-24T07:54:35;16.30;99.90
22795;DHT22;11564;50.920;11.612;2023-06-24T07:57:01;16.60;99.90
22795;DHT22;11564;50.920;11.612;2023-06-24T07:59:27;16.90;99.90
22795;DHT22;11564;50.920;11.612;2023-06-24T08:01:52;17.00;99.90
22795;DHT22;11564;50.920;11.612;2023-06-24T08:04:18;16.70;99.90
22795;DHT22;11564;50.920;11.612;2023-06-24T08:06:44;17.00;99.90
22795;DHT22;11564;50.920;11.612;2023-06-24T08:09:10;17.20;99.90
22795;DHT22;11564;50.920;11.612;2023-06-24T08:11:35;17.50;99.90
22795;DHT22;11564;50.920;11.612;2023-06-24T08:14:01;17.50;99.90
22795;DHT22;11564;50.920;11.612;2023-06-24T08:16:27;17.30;99.90
22795;DHT22;11564;50.920;11.612;2023-06-24T08:18:53;17.50;99.90
22795;DHT22;11564;50.920;11.612;2023-06-24T08:21:18;17.70;99.90
22795;DHT22;11564;50.920;11.612;2023-06-24T08:23:45;17.60;99.90
22795;DHT22;11564;50.920;11.612;2023-06-24T08:26:10;17.80;99.90
22795;DHT22;11564;50.920;11.612;2023-06-24T08:28:36;17.70;99.90
22795;DHT22;11564;50.920;11.612;2023-06-24T08:31:02;17.90;99.90
22795;DHT22;11564;50.920;11.612;2023-06-24T08:33:27;18.00;99.90
22795;DHT22;11564;50.920;11.612;2023-06-24T08:35:53;18.10;99.90
22795;DHT22;11564;50.920;11.612;2023-06-24T08:38:18;18.20;99.90
22795;DHT22;11564;50.920;11.612;2023-06-24T08:40:44;18.30;99.90
22795;DHT22;11564;50.920;11.612;2023-06-24T08:43:10;18.40;99.90
22795;DHT22;11564;50.920;11.612;2023-06-24T08:45:36;18.70;99.90
22795;DHT22;11564;50.920;11.612;2023-06-24T08:48:01;19.10;99.90
22795;DHT22;11564;50.920;11.612;2023-06-24T08:50:33;19.20;99.90
22795;DHT22;11564;50.920;11.612;2023-06-24T08:53:02;19.40;99.90
22795;DHT22;11564;50.920;11.612;2023-06-24T08:55:30;19.50;99.90
22795;DHT22;11564;50.920;11.612;2023-06-24T08:57:57;19.60;99.90
22795;DHT22;11564;50.920;11.612;2023-06-24T09:00:23;19.60;99.90
22795;DHT22;11564;50.920;11.612;2023-06-24T09:02:48;19.70;99.90
22795;DHT22;11564;50.920;11.612;2023-06-24T09:05:14;19.90;99.90
22795;DHT22;11564;50.920;11.612;2023-06-24T09:07:39;19.90;99.90
22795;DHT22;11564;50.920;11.612;2023-06-24T09:10:05;19.90;99.90
22795;DHT22;11564;50.920;11.612;2023-06-24T09:12:32;20.00;99.90
22795;DHT22;11564;50.920;11.612;2023-06-24T09:14:58;20.20;99.90
22795;DHT22;11564;50.920;11.612;2023-06-24T09:17:23;20.30;99.90
22795;DHT22;11564;50.920;11.612;2023-06-24T09:19:50;20.40;99.90
22795;DHT22;11564;50.920;11.612;2023-06-24T09:22:16;20.40;99.60
22795;DHT22;11564;50.920;11.612;2023-06-24T09:24:48;20.40;99.90
22795;DHT22;11564;50.920;11.612;2023-06-24T09:27:14;20.50;99.90
22795;DHT22;11564;50.920;11.612;2023-06-24T09:29:41;20.50;99.90
22795;DHT22;11564;50.920;11.612;2023-06-24T09:32:07;20.70;99.20
22795;DHT22;11564;50.920;11.612;2023-06-24T09:34:33;20.60;98.30
22795;DHT22;11564;50.920;11.612;2023-06-24T09:36:59;20.60;99.10
22795;DHT22;11564;50.920;11.612;2023-06-24T09:39:27;20.60;99.60
22795;DHT22;11564;50.920;11.612;2023-06-24T09:41:59;20.80;98.10
22795;DHT22;11564;50.920;11.612;2023-06-24T09:44:27;20.90;99.90
22795;DHT22;11564;50.920;11.612;2023-06-24T09:46:53;21.10;99.90
22795;DHT22;11564;50.920;11.612;2023-06-24T09:49:19;21.20;99.30
22795;DHT22;11564;50.920;11.612;2023-06-24T09:51:46;21.30;98.50
22795;DHT22;11564;50.920;11.612;2023-06-24T09:54:14;21.40;97.70
22795;DHT22;11564;50.920;11.612;2023-06-24T09:56:45;21.20;96.30
22795;DHT22;11564;50.920;11.612;2023-06-24T09:59:13;21.40;98.40
22795;DHT22;11564;50.920;11.612;2023-06-24T10:01:41;21.60;95.30
22795;DHT22;11564;50.920;11.612;2023-06-24T10:04:08;21.70;97.30
22795;DHT22;11564;50.920;11.612;2023-06-24T10:06:34;21.90;96.40
22795;DHT22;11564;50.920;11.612;2023-06-24T10:09:01;21.80;95.60
22795;DHT22;11564;50.920;11.612;2023-06-24T10:11:27;21.90;97.00
22795;DHT22;11564;50.920;11.612;2023-06-24T10:13:53;21.90;95.60
22795;DHT22;11564;50.920;11.612;2023-06-24T10:16:19;22.00;96.10
22795;DHT22;11564;50.920;11.612;2023-06-24T10:18:46;22.10;95.30
22795;DHT22;11564;50.920;11.612;2023-06-24T10:21:13;21.90;94.80
22795;DHT22;11564;50.920;11.612;2023-06-24T10:26:36;22.10;94.90
22795;DHT22;11564;50.920;11.612;2023-06-24T10:39:56;22.30;93.30
22795;DHT22;11564;50.920;11.612;2023-06-24T10:42:39;22.40;92.90
22795;DHT22;11564;50.920;11.612;2023-06-24T10:47:44;22.10;94.10
22795;DHT22;11564;50.920;11.612;2023-06-24T10:50:15;21.90;92.00
22795;DHT22;11564;50.920;11.612;2023-06-24T10:52:45;22.10;93.20
22795;DHT22;11564;50.920;11.612;2023-06-24T10:55:16;22.40;94.60
22795;DHT22;11564;50.920;11.612;2023-06-24T10:57:42;22.50;92.70
22795;DHT22;11564;50.920;11.612;2023-06-24T11:00:08;22.70;92.20
22795;DHT22;11564;50.920;11.612;2023-06-24T11:02:34;22.90;93.20
22795;DHT22;11564;50.920;11.612;2023-06-24T11:05:00;22.70;92.30
22795;DHT22;11564;50.920;11.612;2023-06-24T11:07:28;23.00;92.60
22795;DHT22;11564;50.920;11.612;2023-06-24T11:09:58;23.20;92.50
22795;DHT22;11564;50.920;11.612;2023-06-24T11:12:26;23.30;92.60
22795;DHT22;11564;50.920;11.612;2023-06-24T11:14:59;23.60;93.00
22795;DHT22;11564;50.920;11.612;2023-06-24T11:17:25;23.80;92.40
22795;DHT22;11564;50.920;11.612;2023-06-24T11:19:55;23.50;92.10
22795;DHT22;11564;50.920;11.612;2023-06-24T11:22:22;23.40;91.30
22795;DHT22;11564;50.920;11.612;2023-06-24T11:24:48;23.40;91.90
22795;DHT22;11564;50.920;11.612;2023-06-24T11:27:14;23.50;92.30
22795;DHT22;11564;50.920;11.612;2023-06-24T11:29:40;23.80;92.40
22795;DHT22;11564;50.920;11.612;2023-06-24T11:32:09;23.70;91.30
22795;DHT22;11564;50.920;11.612;2023-06-24T11:34:36;23.50;90.90
22795;DHT22;11564;50.920;11.612;2023-06-24T11:37:18;23.60;89.60
22795;DHT22;11564;50.920;11.612;2023-06-24T11:39:44;23.50;89.70
22795;DHT22;11564;50.920;11.612;2023-06-24T11:42:11;23.70;90.40
22795;DHT22;11564;50.920;11.612;2023-06-24T11:44:42;23.70;90.40
22795;DHT22;11564;50.920;11.612;2023-06-24T11:47:09;23.60;88.70
22795;DHT22;11564;50.920;11.612;2023-06-24T11:49:52;23.80;88.90
22795;DHT22;11564;50.920;11.612;2023-06-24T11:52:18;23.70;90.10
22795;DHT22;11564;50.920;11.612;2023-06-24T11:54:44;23.70;88.60
22795;DHT22;11564;50.920;11.612;2023-06-24T11:57:10;23.60;88.30
22795;DHT22;11564;50.920;11.612;2023-06-24T11:59:38;23.60;89.40
22795;DHT22;11564;50.920;11.612;2023-06-24T12:02:04;23.70;90.40
22795;DHT22;11564;50.920;11.612;2023-06-24T12:04:30;24.10;88.60
22795;DHT22;11564;50.920;11.612;2023-06-24T12:06:57;24.20;88.40
22795;DHT22;11564;50.920;11.612;2023-06-24T12:09:23;24.10;86.80
22795;DHT22;11564;50.920;11.612;2023-06-24T12:11:49;24.00;90.20
22795;DHT22;11564;50.920;11.612;2023-06-24T12:14:14;24.10;89.70
22795;DHT22;11564;50.920;11.612;2023-06-24T12:16:40;24.30;90.80
22795;DHT22;11564;50.920;11.612;2023-06-24T12:19:09;24.90;90.20
22795;DHT22;11564;50.920;11.612;2023-06-24T12:21:35;25.00;90.00
22795;DHT22;11564;50.920;11.612;2023-06-24T12:24:02;24.70;87.90
22795;DHT22;11564;50.920;11.612;2023-06-24T12:26:27;24.60;86.50
22795;DHT22;11564;50.920;11.612;2023-06-24T12:28:56;24.60;86.40
22795;DHT22;11564;50.920;11.612;2023-06-24T12:31:23;24.90;88.80
22795;DHT22;11564;50.920;11.612;2023-06-24T12:33:49;25.10;88.20
22795;DHT22;11564;50.920;11.612;2023-06-24T12:36:15;25.70;87.00
22795;DHT22;11564;50.920;11.612;2023-06-24T12:38:41;25.90;88.90
22795;DHT22;11564;50.920;11.612;2023-06-24T12:41:06;25.60;84.40
22795;DHT22;11564;50.920;11.612;2023-06-24T12:43:32;25.20;86.00
22795;DHT22;11564;50.920;11.612;2023-06-24T12:45:58;25.00;86.10
22795;DHT22;11564;50.920;11.612;2023-06-24T12:48:24;25.00;85.90
22795;DHT22;11564;50.920;11.612;2023-06-24T12:50:49;25.40;87.00
22795;DHT22;11564;50.920;11.612;2023-06-24T12:53:22;25.20;86.10
22795;DHT22;11564;50.920;11.612;2023-06-24T12:55:47;25.40;87.00
22795;DHT22;11564;50.920;11.612;2023-06-24T12:58:23;25.80;87.30
22795;DHT22;11564;50.920;11.612;2023-06-24T13:00:50;25.60;85.50
22795;DHT22;11564;50.920;11.612;2023-06-24T13:03:15;25.40;86.10
22795;DHT22;11564;50.920;11.612;2023-06-24T13:05:41;25.60;86.90
22795;DHT22;11564;50.920;11.612;2023-06-24T13:08:06;25.30;86.80
22795;DHT22;11564;50.920;11.612;2023-06-24T13:10:32;25.60;86.40
22795;DHT22;11564;50.920;11.612;2023-06-24T13:12:58;25.60;86.10
22795;DHT22;11564;50.920;11.612;2023-06-24T13:15:23;26.10;85.80
22795;DHT22;11564;50.920;11.612;2023-06-24T13:17:50;26.50;86.50
22795;DHT22;11564;50.920;11.612;2023-06-24T13:20:16;26.40;84.90
22795;DHT22;11564;50.920;11.612;2023-06-24T13:22:41;27.30;82.00
22795;DHT22;11564;50.920;11.612;2023-06-24T13:25:07;29.80;81.30
22795;DHT22;11564;50.920;11.612;2023-06-24T13:27:33;31.70;71.70
22795;DHT22;11564;50.920;11.612;2023-06-24T13:29:58;33.20;66.90
22795;DHT22;11564;50.920;11.612;2023-06-24T13:32:24;34.00;62.20
22795;DHT22;11564;50.920;11.612;2023-06-24T13:34:50;35.90;57.70
22795;DHT22;11564;50.920;11.612;2023-06-24T13:37:15;35.30;57.20
22795;DHT22;11564;50.920;11.612;2023-06-24T13:39:41;38.30;52.70
22795;DHT22;11564;50.920;11.612;2023-06-24T13:42:07;39.20;51.10
22795;DHT22;11564;50.920;11.612;2023-06-24T13:44:32;40.10;47.60
22795;DHT22;11564;50.920;11.612;2023-06-24T13:46:58;41.60;47.20
22795;DHT22;11564;50.920;11.612;2023-06-24T13:49:23;42.70;44.10
22795;DHT22;11564;50.920;11.612;2023-06-24T13:51:52;39.80;44.00
22795;DHT22;11564;50.920;11.612;2023-06-24T13:54:18;36.60;47.40
22795;DHT22;11564;50.920;11.612;2023-06-24T13:56:44;35.30;49.60
22795;DHT22;11564;50.920;11.612;2023-06-24T13:59:10;36.10;47.50
22795;DHT22;11564;50.920;11.612;2023-06-24T14:01:35;39.00;45.90
22795;DHT22;11564;50.920;11.612;2023-06-24T14:04:01;39.70;44.50
22795;DHT22;11564;50.920;11.612;2023-06-24T14:06:27;38.90;44.30
22795;DHT22;11564;50.920;11.612;2023-06-24T14:08:53;41.40;43.70
22795;DHT22;11564;50.920;11.612;2023-06-24T14:11:18;38.90;43.80
22795;DHT22;11564;50.920;11.612;2023-06-24T14:13:44;41.10;44.50
22795;DHT22;11564;50.920;11.612;2023-06-24T14:16:10;41.20;41.70
22795;DHT22;11564;50.920;11.612;2023-06-24T14:18:37;42.30;41.60
22795;DHT22;11564;50.920;11.612;2023-06-24T14:21:04;44.20;39.50
22795;DHT22;11564;50.920;11.612;2023-06-24T14:23:31;44.70;40.20
22795;DHT22;11564;50.920;11.612;2023-06-24T14:25:57;45.40;38.10
22795;DHT22;11564;50.920;11.612;2023-06-24T14:28:24;45.00;36.80
22795;DHT22;11564;50.920;11.612;2023-06-24T14:30:50;41.90;39.40
22795;DHT22;11564;50.920;11.612;2023-06-24T14:33:16;40.00;42.40
22795;DHT22;11564;50.920;11.612;2023-06-24T14:35:42;40.20;41.20
22795;DHT22;11564;50.920;11.612;2023-06-24T14:38:08;41.00;40.40
22795;DHT22;11564;50.920;11.612;2023-06-24T14:40:33;39.60;42.00
22795;DHT22;11564;50.920;11.612;2023-06-24T14:42:59;37.50;44.60
22795;DHT22;11564;50.920;11.612;2023-06-24T14:45:25;38.50;43.20
22795;DHT22;11564;50.920;11.612;2023-06-24T14:47:51;36.90;45.00
22795;DHT22;11564;50.920;11.612;2023-06-24T14:50:17;38.20;44.40
22795;DHT22;11564;50.920;11.612;2023-06-24T14:52:43;40.80;41.80
22795;DHT22;11564;50.920;11.612;2023-06-24T14:55:08;41.00;41.90
22795;DHT22;11564;50.920;11.612;2023-06-24T14:57:35;41.60;40.10
22795;DHT22;11564;50.920;11.612;2023-06-24T15:00:01;41.90;39.30
22795;DHT22;11564;50.920;11.612;2023-06-24T15:02:27;43.30;40.20
22795;DHT22;11564;50.920;11.612;2023-06-24T15:04:52;43.40;38.40
22795;DHT22;11564;50.920;11.612;2023-06-24T15:07:18;44.00;37.90
22795;DHT22;11564;50.920;11.612;2023-06-24T15:09:44;42.10;39.80
22795;DHT22;11564;50.920;11.612;2023-06-24T15:12:10;43.10;40.40
22795;DHT22;11564;50.920;11.612;2023-06-24T15:14:36;45.10;38.80
22795;DHT22;11564;50.920;11.612;2023-06-24T15:17:02;45.70;37.20
22795;DHT22;11564;50.920;11.612;2023-06-24T15:19:27;47.20;36.50
22795;DHT22;11564;50.920;11.612;2023-06-24T15:21:53;47.80;35.60
22795;DHT22;11564;50.920;11.612;2023-06-24T15:24:19;43.40;36.80
22795;DHT22;11564;50.920;11.612;2023-06-24T15:26:44;42.50;36.50
22795;DHT22;11564;50.920;11.612;2023-06-24T15:29:10;39.00;40.80
22795;DHT22;11564;50.920;11.612;2023-06-24T15:31:36;37.20;42.40
22795;DHT22;11564;50.920;11.612;2023-06-24T15:34:01;37.70;43.50
22795;DHT22;11564;50.920;11.612;2023-06-24T15:36:27;38.60;41.50